Skip Navigation Links
NOAA logo - Click to go to the NOAA homepage
NOAA's National Weather Service
Alaska Aviation Weather Unit
  NWS logo - Click to go to the NWS homepage
Left Navbar Graphic     12 AKDT = 20 GMT

   
NOAA is celebrating 200 years of science, service, and stewardship. Visit the NOAA 200th celebration Web site to learn more.
USA.gov is the U.S. Government's official Web portal to all Federal, state and local government Web resources and services.
Facebook
NWS on Facebook

Important Change Regarding the AAWU Web Presence

 

Over the last several months, the AAWU has been working to navigate its webpages to a nationally supported server. Security, as well as other needs, have necessitated the change.  We have been given an extension for the site changeover while we diligently work at addressing feedback received. As of July 14, 2017, aawu.arh.noaa.gov will be discontinued. The new AAWU web address is weather.gov/aawu. It is now live and will run in-parallel with the old site until it is discontinued on July 14, 2017. Please continue to send any feedback or questions regarding the new webpages to nws.ar.aawu.webauthors@noaa.gov.  Thank you for your patience during this time of transition.
AAWU Home :: Display TAF Add Bookmark
METAR PAMR 251453Z 00000KT 10SM -RA SCT005 OVC015 13/13 A3000 RMK AO2
     RAE1357B20 SLP160 P0000 60002 T01330133 56005=

METAR PAMR 251553Z 34004KT 10SM -RA SCT005 OVC015 13/13 A3000 RMK AO2
     RAE23B52 SLP159 P0000 T01280128=

METAR PAMR 251653Z COR 34004KT 10SM -RA BKN005 OVC015 13/13 A3000 RMK FG
     VCNTY AO2 SLP158 P0001 T01280128=

METAR PAMR 251753Z 25004KT 10SM -RA BKN005 OVC015 13/13 A3000 RMK AO2
     SLP158 P0002 60005 T01280128 10133 20128 56002=

METAR PAMR 251853Z 31004KT 10SM OVC005 13/13 A2999 RMK AO2 RAE47 SLP156
     P0001 T01280128=

METAR PAMR 251953Z 00000KT 10SM OVC005 13/13 A2998 RMK AO2 CIG 004V008
     SLP155 T01330133=


NOAA's National Weather Service
Alaska Aviation Weather Unit
6930 Sand Lake Road
Anchorage, AK 99502-1845
Disclaimer
Credits
Glossary
Privacy Policy
About Us
Career Opportunities
Contact AAWU Internet Services Site last modified: April, 17th 2012